sensor_id;sensor_type;location;lat;lon;timestamp;pressure;altitude;pressure_sealevel;temperature;humidity
38452;BME280;24231;52.514;13.438;2023-06-10T00:02:05;101141.02;;;20.78;49.44
38452;BME280;24231;52.514;13.438;2023-06-10T00:04:32;101145.70;;;21.06;48.74
38452;BME280;24231;52.514;13.438;2023-06-10T00:06:59;101132.79;;;20.89;49.47
38452;BME280;24231;52.514;13.438;2023-06-10T00:09:26;101138.33;;;19.32;53.58
38452;BME280;24231;52.514;13.438;2023-06-10T00:11:53;101137.28;;;20.30;51.18
38452;BME280;24231;52.514;13.438;2023-06-10T00:14:20;101133.56;;;21.09;49.05
38452;BME280;24231;52.514;13.438;2023-06-10T00:16:47;101137.26;;;21.12;48.90
38452;BME280;24231;52.514;13.438;2023-06-10T00:19:14;101124.90;;;20.85;49.59
38452;BME280;24231;52.514;13.438;2023-06-10T00:21:41;101127.52;;;21.41;48.07
38452;BME280;24231;52.514;13.438;2023-06-10T00:24:08;101126.07;;;20.57;50.48
38452;BME280;24231;52.514;13.438;2023-06-10T00:26:35;101124.95;;;20.91;49.50
38452;BME280;24231;52.514;13.438;2023-06-10T00:29:05;101118.15;;;20.36;50.91
38452;BME280;24231;52.514;13.438;2023-06-10T00:31:33;101121.82;;;20.35;50.82
38452;BME280;24231;52.514;13.438;2023-06-10T00:34:00;101123.05;;;20.30;51.18
38452;BME280;24231;52.514;13.438;2023-06-10T00:36:27;101128.06;;;19.29;54.77
38452;BME280;24231;52.514;13.438;2023-06-10T00:38:55;101131.83;;;19.46;54.69
38452;BME280;24231;52.514;13.438;2023-06-10T00:41:24;101130.53;;;19.30;55.10
38452;BME280;24231;52.514;13.438;2023-06-10T00:43:52;101125.66;;;19.58;54.27
38452;BME280;24231;52.514;13.438;2023-06-10T00:46:19;101124.77;;;19.57;54.05
38452;BME280;24231;52.514;13.438;2023-06-10T00:48:47;101123.14;;;19.38;54.77
38452;BME280;24231;52.514;13.438;2023-06-10T00:51:15;101122.81;;;20.02;52.99
38452;BME280;24231;52.514;13.438;2023-06-10T00:53:45;101128.32;;;19.74;53.45
38452;BME280;24231;52.514;13.438;2023-06-10T00:56:13;101125.69;;;19.82;53.50
38452;BME280;24231;52.514;13.438;2023-06-10T00:58:41;101127.55;;;19.05;55.93
38452;BME280;24231;52.514;13.438;2023-06-10T01:01:08;101129.80;;;19.22;55.51
38452;BME280;24231;52.514;13.438;2023-06-10T01:03:37;101129.18;;;19.66;53.72
38452;BME280;24231;52.514;13.438;2023-06-10T01:06:09;101128.66;;;19.45;54.38
38452;BME280;24231;52.514;13.438;2023-06-10T01:08:47;101135.43;;;19.99;52.82
38452;BME280;24231;52.514;13.438;2023-06-10T01:11:19;101136.82;;;19.77;53.47
38452;BME280;24231;52.514;13.438;2023-06-10T01:13:51;101143.90;;;19.64;53.64
38452;BME280;24231;52.514;13.438;2023-06-10T01:16:19;101142.57;;;20.02;52.82
38452;BME280;24231;52.514;13.438;2023-06-10T01:18:46;101140.68;;;20.06;51.99
38452;BME280;24231;52.514;13.438;2023-06-10T01:21:19;101141.31;;;20.25;51.34
38452;BME280;24231;52.514;13.438;2023-06-10T01:23:46;101143.16;;;19.87;53.14
38452;BME280;24231;52.514;13.438;2023-06-10T01:26:14;101142.03;;;19.09;55.03
38452;BME280;24231;52.514;13.438;2023-06-10T01:28:48;101145.89;;;19.06;56.46
38452;BME280;24231;52.514;13.438;2023-06-10T01:31:18;101142.57;;;19.25;55.48
38452;BME280;24231;52.514;13.438;2023-06-10T01:33:51;101145.83;;;19.71;53.81
38452;BME280;24231;52.514;13.438;2023-06-10T01:36:22;101147.34;;;19.82;53.70
38452;BME280;24231;52.514;13.438;2023-06-10T01:38:50;101144.35;;;19.26;54.86
38452;BME280;24231;52.514;13.438;2023-06-10T01:41:19;101150.69;;;18.22;58.87
38452;BME280;24231;52.514;13.438;2023-06-10T01:43:48;101144.57;;;18.77;56.71
38452;BME280;24231;52.514;13.438;2023-06-10T01:46:17;101143.44;;;19.27;55.11
38452;BME280;24231;52.514;13.438;2023-06-10T01:48:44;101147.37;;;19.86;52.63
38452;BME280;24231;52.514;13.438;2023-06-10T01:51:10;101149.10;;;19.82;52.43
38452;BME280;24231;52.514;13.438;2023-06-10T01:53:37;101145.38;;;19.91;52.28
38452;BME280;24231;52.514;13.438;2023-06-10T01:56:05;101145.37;;;19.28;54.05
38452;BME280;24231;52.514;13.438;2023-06-10T01:58:32;101145.63;;;19.55;54.26
38452;BME280;24231;52.514;13.438;2023-06-10T02:00:59;101148.97;;;19.38;54.84
38452;BME280;24231;52.514;13.438;2023-06-10T02:03:26;101149.49;;;19.68;53.96
38452;BME280;24231;52.514;13.438;2023-06-10T02:05:53;101150.21;;;19.93;52.86
38452;BME280;24231;52.514;13.438;2023-06-10T02:08:20;101147.54;;;19.09;54.88
38452;BME280;24231;52.514;13.438;2023-06-10T02:10:47;101146.33;;;19.74;53.31
38452;BME280;24231;52.514;13.438;2023-06-10T02:13:14;101147.72;;;19.72;53.22
38452;BME280;24231;52.514;13.438;2023-06-10T02:15:41;101151.56;;;19.79;53.13
38452;BME280;24231;52.514;13.438;2023-06-10T02:18:08;101155.77;;;19.51;53.82
38452;BME280;24231;52.514;13.438;2023-06-10T02:20:36;101156.31;;;19.53;53.85
38452;BME280;24231;52.514;13.438;2023-06-10T02:23:03;101154.22;;;19.51;53.82
38452;BME280;24231;52.514;13.438;2023-06-10T02:25:30;101161.84;;;18.62;56.96
38452;BME280;24231;52.514;13.438;2023-06-10T02:27:57;101159.28;;;19.16;55.06
38452;BME280;24231;52.514;13.438;2023-06-10T02:30:24;101158.81;;;19.60;54.00
38452;BME280;24231;52.514;13.438;2023-06-10T02:32:51;101158.45;;;19.44;54.05
38452;BME280;24231;52.514;13.438;2023-06-10T02:35:21;101156.20;;;19.43;54.42
38452;BME280;24231;52.514;13.438;2023-06-10T02:37:49;101156.70;;;19.50;54.30
38452;BME280;24231;52.514;13.438;2023-06-10T02:40:16;101157.35;;;19.59;53.59
38452;BME280;24231;52.514;13.438;2023-06-10T02:42:43;101159.50;;;19.44;53.86
38452;BME280;24231;52.514;13.438;2023-06-10T02:45:10;101156.30;;;19.39;54.13
38452;BME280;24231;52.514;13.438;2023-06-10T02:47:38;101156.41;;;19.00;55.68
38452;BME280;24231;52.514;13.438;2023-06-10T02:50:06;101157.60;;;18.97;56.09
38452;BME280;24231;52.514;13.438;2023-06-10T02:52:33;101159.00;;;19.38;54.56
38452;BME280;24231;52.514;13.438;2023-06-10T02:55:00;101161.45;;;18.76;56.13
38452;BME280;24231;52.514;13.438;2023-06-10T02:57:27;101164.06;;;18.79;56.75
38452;BME280;24231;52.514;13.438;2023-06-10T02:59:54;101160.69;;;18.97;55.81
38452;BME280;24231;52.514;13.438;2023-06-10T03:02:21;101162.28;;;19.03;56.01
38452;BME280;24231;52.514;13.438;2023-06-10T03:04:49;101160.98;;;18.98;55.86
38452;BME280;24231;52.514;13.438;2023-06-10T03:07:16;101158.13;;;19.17;55.18
38452;BME280;24231;52.514;13.438;2023-06-10T03:09:43;101158.80;;;19.11;55.75
38452;BME280;24231;52.514;13.438;2023-06-10T03:12:10;101163.14;;;19.37;54.52
38452;BME280;24231;52.514;13.438;2023-06-10T03:14:38;101165.08;;;19.25;55.29
38452;BME280;24231;52.514;13.438;2023-06-10T03:17:05;101161.25;;;19.60;53.83
38452;BME280;24231;52.514;13.438;2023-06-10T03:19:32;101160.14;;;19.41;54.02
38452;BME280;24231;52.514;13.438;2023-06-10T03:22:08;101164.17;;;18.65;56.31
38452;BME280;24231;52.514;13.438;2023-06-10T03:24:37;101167.61;;;18.50;57.09
38452;BME280;24231;52.514;13.438;2023-06-10T03:27:04;101165.33;;;18.19;58.15
38452;BME280;24231;52.514;13.438;2023-06-10T03:29:31;101160.78;;;19.50;54.19
38452;BME280;24231;52.514;13.438;2023-06-10T03:31:59;101162.35;;;19.51;53.65
38452;BME280;24231;52.514;13.438;2023-06-10T03:34:26;101167.70;;;19.48;53.89
38452;BME280;24231;52.514;13.438;2023-06-10T03:36:53;101172.35;;;19.48;54.12
38452;BME280;24231;52.514;13.438;2023-06-10T03:39:21;101172.92;;;19.51;53.99
38452;BME280;24231;52.514;13.438;2023-06-10T03:41:47;101171.98;;;19.51;53.94
38452;BME280;24231;52.514;13.438;2023-06-10T03:44:15;101171.99;;;19.58;53.62
38452;BME280;24231;52.514;13.438;2023-06-10T03:46:42;101173.35;;;19.56;53.45
38452;BME280;24231;52.514;13.438;2023-06-10T03:49:09;101176.60;;;18.99;55.36
38452;BME280;24231;52.514;13.438;2023-06-10T03:51:36;101177.61;;;19.17;54.70
38452;BME280;24231;52.514;13.438;2023-06-10T03:54:03;101176.06;;;19.40;54.01
38452;BME280;24231;52.514;13.438;2023-06-10T03:56:31;101180.85;;;19.88;52.73
38452;BME280;24231;52.514;13.438;2023-06-10T03:58:58;101183.52;;;19.60;52.56
38452;BME280;24231;52.514;13.438;2023-06-10T04:01:25;101183.63;;;19.95;52.27
38452;BME280;24231;52.514;13.438;2023-06-10T04:03:52;101184.10;;;19.97;52.33
38452;BME280;24231;52.514;13.438;2023-06-10T04:06:19;101182.41;;;19.39;54.02
38452;BME280;24231;52.514;13.438;2023-06-10T04:08:46;101184.18;;;19.89;52.68
38452;BME280;24231;52.514;13.438;2023-06-10T04:11:13;101187.53;;;20.13;51.92
38452;BME280;24231;52.514;13.438;2023-06-10T04:13:41;101191.10;;;20.30;51.56
38452;BME280;24231;52.514;13.438;2023-06-10T04:16:07;101192.51;;;20.10;51.81
38452;BME280;24231;52.514;13.438;2023-06-10T04:18:34;101188.73;;;20.01;51.75
38452;BME280;24231;52.514;13.438;2023-06-10T04:21:01;101185.28;;;20.56;50.52
38452;BME280;24231;52.514;13.438;2023-06-10T04:23:28;101185.71;;;20.48;50.52
38452;BME280;24231;52.514;13.438;2023-06-10T04:25:55;101182.05;;;20.35;50.71
38452;BME280;24231;52.514;13.438;2023-06-10T04:28:22;101182.67;;;20.47;50.71
38452;BME280;24231;52.514;13.438;2023-06-10T04:30:49;101187.78;;;20.37;50.40
38452;BME280;24231;52.514;13.438;2023-06-10T04:33:16;101186.39;;;20.49;50.13
38452;BME280;24231;52.514;13.438;2023-06-10T04:35:43;101186.63;;;20.65;49.75
38452;BME280;24231;52.514;13.438;2023-06-10T04:38:10;101194.21;;;20.97;49.26
38452;BME280;24231;52.514;13.438;2023-06-10T04:40:38;101199.96;;;20.74;49.96
38452;BME280;24231;52.514;13.438;2023-06-10T04:43:05;101205.90;;;20.15;50.81
38452;BME280;24231;52.514;13.438;2023-06-10T04:45:32;101207.59;;;19.32;54.30
38452;BME280;24231;52.514;13.438;2023-06-10T04:47:59;101203.95;;;20.37;50.73
38452;BME280;24231;52.514;13.438;2023-06-10T04:50:27;101203.08;;;20.75;49.59
38452;BME280;24231;52.514;13.438;2023-06-10T04:52:54;101206.15;;;21.02;48.71
38452;BME280;24231;52.514;13.438;2023-06-10T04:55:21;101209.58;;;20.07;51.15
38452;BME280;24231;52.514;13.438;2023-06-10T04:57:48;101212.41;;;21.22;48.36
38452;BME280;24231;52.514;13.438;2023-06-10T05:00:15;101215.31;;;19.42;53.59
38452;BME280;24231;52.514;13.438;2023-06-10T05:02:43;101214.63;;;20.70;50.20
38452;BME280;24231;52.514;13.438;2023-06-10T05:05:10;101212.84;;;21.64;47.32
38452;BME280;24231;52.514;13.438;2023-06-10T05:07:36;101218.97;;;20.80;48.91
38452;BME280;24231;52.514;13.438;2023-06-10T05:10:04;101216.73;;;21.94;46.07
38452;BME280;24231;52.514;13.438;2023-06-10T05:12:32;101218.13;;;22.46;45.06
38452;BME280;24231;52.514;13.438;2023-06-10T05:14:58;101220.43;;;20.80;48.89
38452;BME280;24231;52.514;13.438;2023-06-10T05:17:26;101222.15;;;22.22;45.79
38452;BME280;24231;52.514;13.438;2023-06-10T05:19:53;101224.59;;;20.19;50.74
38452;BME280;24231;52.514;13.438;2023-06-10T05:22:20;101226.19;;;21.02;49.26
38452;BME280;24231;52.514;13.438;2023-06-10T05:24:48;101228.45;;;19.76;53.30
38452;BME280;24231;52.514;13.438;2023-06-10T05:27:15;101225.74;;;21.60;47.94
38452;BME280;24231;52.514;13.438;2023-06-10T05:29:42;101229.53;;;21.18;49.37
38452;BME280;24231;52.514;13.438;2023-06-10T05:32:09;101224.05;;;22.44;46.23
38452;BME280;24231;52.514;13.438;2023-06-10T05:34:36;101225.32;;;21.44;49.67
38452;BME280;24231;52.514;13.438;2023-06-10T05:37:04;101228.69;;;22.95;45.66
38452;BME280;24231;52.514;13.438;2023-06-10T05:39:36;101234.34;;;21.50;49.78
38452;BME280;24231;52.514;13.438;2023-06-10T05:42:04;101231.27;;;20.14;52.65
38452;BME280;24231;52.514;13.438;2023-06-10T05:44:31;101226.01;;;22.51;46.54
38452;BME280;24231;52.514;13.438;2023-06-10T05:46:58;101228.09;;;22.50;45.59
38452;BME280;24231;52.514;13.438;2023-06-10T05:49:25;101221.93;;;21.79;48.02
38452;BME280;24231;52.514;13.438;2023-06-10T05:51:52;101223.56;;;20.83;50.70
38452;BME280;24231;52.514;13.438;2023-06-10T05:54:19;101225.56;;;20.99;50.75
38452;BME280;24231;52.514;13.438;2023-06-10T05:56:46;101226.86;;;20.82;51.05
38452;BME280;24231;52.514;13.438;2023-06-10T05:59:13;101230.94;;;20.51;51.94
38452;BME280;24231;52.514;13.438;2023-06-10T06:01:40;101226.96;;;21.47;49.39
38452;BME280;24231;52.514;13.438;2023-06-10T06:04:07;101233.48;;;22.68;46.21
38452;BME280;24231;52.514;13.438;2023-06-10T06:06:35;101235.59;;;20.36;51.69
38452;BME280;24231;52.514;13.438;2023-06-10T06:09:03;101242.89;;;19.35;55.11
38452;BME280;24231;52.514;13.438;2023-06-10T06:11:30;101244.25;;;19.49;55.73
38452;BME280;24231;52.514;13.438;2023-06-10T06:13:57;101240.34;;;20.77;51.68
38452;BME280;24231;52.514;13.438;2023-06-10T06:16:24;101242.08;;;21.39;49.28
38452;BME280;24231;52.514;13.438;2023-06-10T06:18:51;101243.29;;;19.95;53.79
38452;BME280;24231;52.514;13.438;2023-06-10T06:21:18;101241.36;;;20.56;51.47
38452;BME280;24231;52.514;13.438;2023-06-10T06:23:45;101248.16;;;20.95;51.06
38452;BME280;24231;52.514;13.438;2023-06-10T06:26:12;101253.80;;;20.59;52.15
38452;BME280;24231;52.514;13.438;2023-06-10T06:28:39;101255.16;;;20.57;51.94
38452;BME280;24231;52.514;13.438;2023-06-10T06:31:07;101253.00;;;21.73;49.04
38452;BME280;24231;52.514;13.438;2023-06-10T06:33:33;101251.71;;;21.21;49.83
38452;BME280;24231;52.514;13.438;2023-06-10T06:36:00;101258.40;;;20.52;51.83
38452;BME280;24231;52.514;13.438;2023-06-10T06:38:27;101254.14;;;22.07;47.03
38452;BME280;24231;52.514;13.438;2023-06-10T06:40:54;101257.53;;;21.88;47.88
38452;BME280;24231;52.514;13.438;2023-06-10T06:43:22;101260.33;;;22.90;44.92
38452;BME280;24231;52.514;13.438;2023-06-10T06:45:49;101265.89;;;22.75;45.47
38452;BME280;24231;52.514;13.438;2023-06-10T06:48:15;101265.48;;;22.20;46.54
38452;BME280;24231;52.514;13.438;2023-06-10T06:50:42;101274.89;;;20.96;50.18
38452;BME280;24231;52.514;13.438;2023-06-10T06:53:09;101275.30;;;20.77;51.45
38452;BME280;24231;52.514;13.438;2023-06-10T06:55:36;101275.98;;;20.57;52.29
38452;BME280;24231;52.514;13.438;2023-06-10T06:58:03;101276.46;;;21.17;50.76
38452;BME280;24231;52.514;13.438;2023-06-10T07:00:30;101272.57;;;21.68;48.90
38452;BME280;24231;52.514;13.438;2023-06-10T07:02:58;101276.04;;;21.73;48.80
38452;BME280;24231;52.514;13.438;2023-06-10T07:05:25;101269.12;;;24.52;41.96
38452;BME280;24231;52.514;13.438;2023-06-10T07:07:52;101279.13;;;22.63;45.53
38452;BME280;24231;52.514;13.438;2023-06-10T07:10:20;101279.58;;;22.16;47.83
38452;BME280;24231;52.514;13.438;2023-06-10T07:12:46;101279.12;;;23.43;44.58
38452;BME280;24231;52.514;13.438;2023-06-10T07:15:13;101277.27;;;23.67;43.60
38452;BME280;24231;52.514;13.438;2023-06-10T07:17:40;101275.48;;;25.90;39.09
38452;BME280;24231;52.514;13.438;2023-06-10T07:20:08;101271.18;;;28.01;35.30
38452;BME280;24231;52.514;13.438;2023-06-10T07:22:36;101273.30;;;27.67;35.45
38452;BME280;24231;52.514;13.438;2023-06-10T07:25:03;101274.18;;;27.80;35.00
38452;BME280;24231;52.514;13.438;2023-06-10T07:27:31;101280.15;;;25.07;38.72
38452;BME280;24231;52.514;13.438;2023-06-10T07:29:57;101282.92;;;25.54;39.46
38452;BME280;24231;52.514;13.438;2023-06-10T07:32:25;101287.20;;;27.29;36.33
38452;BME280;24231;52.514;13.438;2023-06-10T07:34:52;101287.26;;;27.21;35.97
38452;BME280;24231;52.514;13.438;2023-06-10T07:37:20;101291.26;;;27.17;35.79
38452;BME280;24231;52.514;13.438;2023-06-10T07:39:47;101290.14;;;27.89;34.31
38452;BME280;24231;52.514;13.438;2023-06-10T07:42:14;101296.77;;;26.73;36.38
38452;BME280;24231;52.514;13.438;2023-06-10T07:44:42;101295.31;;;24.22;41.09
38452;BME280;24231;52.514;13.438;2023-06-10T07:47:09;101287.03;;;26.06;37.90
38452;BME280;24231;52.514;13.438;2023-06-10T07:49:37;101295.47;;;26.93;36.70
38452;BME280;24231;52.514;13.438;2023-06-10T07:52:05;101294.10;;;27.00;36.76
38452;BME280;24231;52.514;13.438;2023-06-10T07:54:32;101294.60;;;26.62;37.29
38452;BME280;24231;52.514;13.438;2023-06-10T07:56:59;101294.08;;;26.08;38.72
38452;BME280;24231;52.514;13.438;2023-06-10T07:59:26;101295.35;;;26.66;38.00
38452;BME280;24231;52.514;13.438;2023-06-10T08:01:53;101292.62;;;27.94;35.27
38452;BME280;24231;52.514;13.438;2023-06-10T08:04:20;101290.43;;;28.70;34.28
38452;BME280;24231;52.514;13.438;2023-06-10T08:06:47;101291.51;;;28.45;34.59
38452;BME280;24231;52.514;13.438;2023-06-10T08:09:14;101290.82;;;28.79;33.96
38452;BME280;24231;52.514;13.438;2023-06-10T08:11:43;101296.52;;;29.19;33.34
38452;BME280;24231;52.514;13.438;2023-06-10T08:14:10;101299.29;;;24.80;39.75
38452;BME280;24231;52.514;13.438;2023-06-10T08:16:39;101294.54;;;27.15;36.42
38452;BME280;24231;52.514;13.438;2023-06-10T08:19:06;101292.81;;;27.90;34.64
38452;BME280;24231;52.514;13.438;2023-06-10T08:21:33;101293.80;;;27.87;35.48
38452;BME280;24231;52.514;13.438;2023-06-10T08:24:00;101296.46;;;29.25;32.82
38452;BME280;24231;52.514;13.438;2023-06-10T08:26:28;101302.00;;;26.56;37.16
38452;BME280;24231;52.514;13.438;2023-06-10T08:28:55;101295.48;;;28.37;34.96
38452;BME280;24231;52.514;13.438;2023-06-10T08:31:28;101298.10;;;29.44;33.01
38452;BME280;24231;52.514;13.438;2023-06-10T08:33:56;101298.66;;;29.56;32.70
38452;BME280;24231;52.514;13.438;2023-06-10T08:36:23;101299.85;;;29.66;32.49
38452;BME280;24231;52.514;13.438;2023-06-10T08:38:50;101302.14;;;29.69;32.22
38452;BME280;24231;52.514;13.438;2023-06-10T08:41:17;101301.23;;;30.01;32.05
38452;BME280;24231;52.514;13.438;2023-06-10T08:43:52;101304.32;;;29.69;31.84
38452;BME280;24231;52.514;13.438;2023-06-10T08:46:28;101306.83;;;28.37;33.93
38452;BME280;24231;52.514;13.438;2023-06-10T08:49:02;101308.13;;;30.49;31.36
38452;BME280;24231;52.514;13.438;2023-06-10T08:51:30;101315.67;;;29.65;31.75
38452;BME280;24231;52.514;13.438;2023-06-10T08:54:05;101323.85;;;26.54;36.58
38452;BME280;24231;52.514;13.438;2023-06-10T08:56:37;101311.92;;;26.21;37.30
38452;BME280;24231;52.514;13.438;2023-06-10T08:59:06;101312.89;;;26.23;38.21
38452;BME280;24231;52.514;13.438;2023-06-10T09:01:34;101311.12;;;28.79;34.31
38452;BME280;24231;52.514;13.438;2023-06-10T09:04:03;101307.55;;;29.77;32.50
38452;BME280;24231;52.514;13.438;2023-06-10T09:06:32;101307.78;;;29.98;32.40
38452;BME280;24231;52.514;13.438;2023-06-10T09:08:59;101313.34;;;28.65;33.65
38452;BME280;24231;52.514;13.438;2023-06-10T09:11:27;101318.21;;;25.77;38.75
38452;BME280;24231;52.514;13.438;2023-06-10T09:13:54;101317.92;;;26.08;38.69
38452;BME280;24231;52.514;13.438;2023-06-10T09:16:22;101314.78;;;27.59;36.41
38452;BME280;24231;52.514;13.438;2023-06-10T09:19:52;101313.64;;;27.85;35.77
38452;BME280;24231;52.514;13.438;2023-06-10T09:22:26;101312.62;;;29.46;33.17
38452;BME280;24231;52.514;13.438;2023-06-10T09:25:03;101313.89;;;29.43;32.89
38452;BME280;24231;52.514;13.438;2023-06-10T09:27:30;101319.28;;;29.66;32.43
38452;BME280;24231;52.514;13.438;2023-06-10T09:30:01;101319.12;;;28.21;34.78
38452;BME280;24231;52.514;13.438;2023-06-10T09:32:27;101320.50;;;28.71;33.48
38452;BME280;24231;52.514;13.438;2023-06-10T09:34:55;101321.22;;;28.36;34.12
38452;BME280;24231;52.514;13.438;2023-06-10T09:37:38;101323.37;;;28.32;34.13
38452;BME280;24231;52.514;13.438;2023-06-10T09:40:13;101329.18;;;28.53;33.78
38452;BME280;24231;52.514;13.438;2023-06-10T09:42:40;101330.27;;;28.43;33.89
38452;BME280;24231;52.514;13.438;2023-06-10T09:45:09;101328.70;;;28.44;33.67
38452;BME280;24231;52.514;13.438;2023-06-10T09:47:37;101328.52;;;28.52;33.30
38452;BME280;24231;52.514;13.438;2023-06-10T09:50:05;101326.63;;;28.33;33.65
38452;BME280;24231;52.514;13.438;2023-06-10T09:52:34;101330.37;;;28.79;33.07
38452;BME280;24231;52.514;13.438;2023-06-10T09:55:08;101330.53;;;25.35;38.26
38452;BME280;24231;52.514;13.438;2023-06-10T09:57:41;101333.40;;;24.54;40.08
38452;BME280;24231;52.514;13.438;2023-06-10T10:00:14;101329.80;;;25.18;39.19
38452;BME280;24231;52.514;13.438;2023-06-10T10:02:46;101327.62;;;25.19;38.86
38452;BME280;24231;52.514;13.438;2023-06-10T10:05:14;101331.26;;;24.00;40.64
38452;BME280;24231;52.514;13.438;2023-06-10T10:07:42;101330.19;;;24.96;39.06
38452;BME280;24231;52.514;13.438;2023-06-10T10:10:22;101329.15;;;23.81;41.23
38452;BME280;24231;52.514;13.438;2023-06-10T10:12:53;101329.84;;;24.09;40.90
38452;BME280;24231;52.514;13.438;2023-06-10T10:15:21;101333.45;;;24.22;40.54
38452;BME280;24231;52.514;13.438;2023-06-10T10:17:58;101335.08;;;23.93;41.06
38452;BME280;24231;52.514;13.438;2023-06-10T10:20:29;101334.04;;;23.93;40.75
38452;BME280;24231;52.514;13.438;2023-06-10T10:22:58;101330.54;;;24.33;40.79
38452;BME280;24231;52.514;13.438;2023-06-10T10:25:29;101328.71;;;24.56;39.21
38452;BME280;24231;52.514;13.438;2023-06-10T10:28:02;101328.57;;;25.79;36.40
38452;BME280;24231;52.514;13.438;2023-06-10T10:30:39;101327.61;;;24.98;37.78
38452;BME280;24231;52.514;13.438;2023-06-10T10:33:12;101325.75;;;24.25;37.02
38452;BME280;24231;52.514;13.438;2023-06-10T10:35:39;101330.63;;;24.10;36.97
38452;BME280;24231;52.514;13.438;2023-06-10T10:38:07;101328.99;;;25.48;34.62
38452;BME280;24231;52.514;13.438;2023-06-10T10:40:36;101330.06;;;25.54;35.14
38452;BME280;24231;52.514;13.438;2023-06-10T10:43:04;101322.15;;;25.32;34.49
38452;BME280;24231;52.514;13.438;2023-06-10T10:45:33;101315.04;;;26.71;32.22
38452;BME280;24231;52.514;13.438;2023-06-10T10:48:07;101310.69;;;27.50;30.90
38452;BME280;24231;52.514;13.438;2023-06-10T10:50:34;101304.07;;;27.65;30.44
38452;BME280;24231;52.514;13.438;2023-06-10T10:53:02;101304.26;;;26.98;31.26
38452;BME280;24231;52.514;13.438;2023-06-10T10:55:30;101301.70;;;27.54;30.56
38452;BME280;24231;52.514;13.438;2023-06-10T10:57:58;101300.04;;;27.39;31.08
38452;BME280;24231;52.514;13.438;2023-06-10T11:00:30;101287.55;;;28.18;28.96
38452;BME280;24231;52.514;13.438;2023-06-10T11:02:59;101281.08;;;28.24;29.55
38452;BME280;24231;52.514;13.438;2023-06-10T11:05:44;101279.42;;;28.69;28.35
38452;BME280;24231;52.514;13.438;2023-06-10T11:08:12;101276.97;;;28.68;28.56
38452;BME280;24231;52.514;13.438;2023-06-10T11:10:40;101279.35;;;29.09;27.37
38452;BME280;24231;52.514;13.438;2023-06-10T11:13:09;101273.24;;;28.06;28.73
38452;BME280;24231;52.514;13.438;2023-06-10T11:15:44;101273.94;;;29.07;27.66
38452;BME280;24231;52.514;13.438;2023-06-10T11:18:15;101271.79;;;28.88;27.86
38452;BME280;24231;52.514;13.438;2023-06-10T11:20:53;101269.50;;;28.84;28.46
38452;BME280;24231;52.514;13.438;2023-06-10T11:24:44;101272.51;;;29.13;27.66
38452;BME280;24231;52.514;13.438;2023-06-10T11:27:16;101275.65;;;28.64;28.59
38452;BME280;24231;52.514;13.438;2023-06-10T11:30:18;101268.63;;;29.59;26.55
38452;BME280;24231;52.514;13.438;2023-06-10T11:32:50;101270.66;;;28.12;28.24
38452;BME280;24231;52.514;13.438;2023-06-10T11:35:19;101268.93;;;28.88;28.48
38452;BME280;24231;52.514;13.438;2023-06-10T11:37:47;101265.05;;;27.94;29.19
38452;BME280;24231;52.514;13.438;2023-06-10T11:40:14;101263.59;;;28.82;28.17
38452;BME280;24231;52.514;13.438;2023-06-10T11:42:42;101268.06;;;26.33;30.95
38452;BME280;24231;52.514;13.438;2023-06-10T11:45:14;101267.41;;;27.67;29.47
38452;BME280;24231;52.514;13.438;2023-06-10T11:47:55;101268.32;;;28.31;28.87
38452;BME280;24231;52.514;13.438;2023-06-10T11:50:29;101272.32;;;29.21;28.95
38452;BME280;24231;52.514;13.438;2023-06-10T11:52:55;101278.93;;;28.06;31.45
38452;BME280;24231;52.514;13.438;2023-06-10T11:55:22;101278.56;;;27.93;31.99
38452;BME280;24231;52.514;13.438;2023-06-10T11:57:49;101278.16;;;28.81;31.56
38452;BME280;24231;52.514;13.438;2023-06-10T12:00:17;101278.26;;;28.62;32.48
38452;BME280;24231;52.514;13.438;2023-06-10T12:02:44;101275.02;;;28.11;33.46
38452;BME280;24231;52.514;13.438;2023-06-10T12:05:11;101276.28;;;26.94;36.43
38452;BME280;24231;52.514;13.438;2023-06-10T12:07:39;101276.84;;;26.95;35.77
38452;BME280;24231;52.514;13.438;2023-06-10T12:10:06;101280.74;;;25.37;36.53
38452;BME280;24231;52.514;13.438;2023-06-10T12:12:35;101286.01;;;25.60;36.10
38452;BME280;24231;52.514;13.438;2023-06-10T12:15:23;101273.41;;;26.17;34.23
38452;BME280;24231;52.514;13.438;2023-06-10T12:17:51;101271.24;;;25.77;33.87
38452;BME280;24231;52.514;13.438;2023-06-10T12:20:25;101274.52;;;27.40;31.63
38452;BME280;24231;52.514;13.438;2023-06-10T12:22:53;101275.62;;;25.53;34.68
38452;BME280;24231;52.514;13.438;2023-06-10T12:25:25;101275.23;;;25.83;34.81
38452;BME280;24231;52.514;13.438;2023-06-10T12:27:53;101269.60;;;27.05;33.64
38452;BME280;24231;52.514;13.438;2023-06-10T12:30:22;101278.49;;;25.59;35.69
38452;BME280;24231;52.514;13.438;2023-06-10T12:32:50;101267.16;;;25.31;36.98
38452;BME280;24231;52.514;13.438;2023-06-10T12:35:19;101260.39;;;26.88;34.33
38452;BME280;24231;52.514;13.438;2023-06-10T12:37:55;101263.14;;;26.42;35.04
38452;BME280;24231;52.514;13.438;2023-06-10T12:40:26;101255.10;;;26.00;36.33
38452;BME280;24231;52.514;13.438;2023-06-10T12:42:54;101251.43;;;26.68;34.83
38452;BME280;24231;52.514;13.438;2023-06-10T12:45:31;101248.64;;;25.86;36.48
38452;BME280;24231;52.514;13.438;2023-06-10T12:48:08;101250.44;;;26.42;36.39
38452;BME280;24231;52.514;13.438;2023-06-10T12:50:36;101242.87;;;25.79;37.89